• Join FlightAware (Why Join?)
  • Login
  • US Flag 
01:39AM EDT


 

Airport Tracker/Info


-or-


 

Live Flight TrackerFlight Track Log ✈ SWA216 ✈ 27-Apr-2013 ✈ KBWI - KPVD

Flight Track Log - Related Links

Times and Time Zones

All times are in EDT time to prevent confusion due to time zone crossing. See the SWA216 flight status page for this flight to view local times or setup timezone preferences in your user account.

Time Position Orientation Groundspeed Altitude Reporting Facility
EDT Latitude Longitude Course Direction KTS MPH feet Rate Location/Type
10:33AM 39.1833 -76.7333 122° Southeast 184 212 2,300  Level Potomac TRACON
10:35AM 39.1361 -76.6353 122° Southeast 152 175 8,700 2,760 Climbing Washington Center
10:36AM 39.1389 -76.5308 88° East 216 249 11,000 2,880 Climbing Washington Center
10:37AM 39.1419 -76.4292 88° East 256 295 14,600 2,820 Climbing Washington Center
10:38AM 39.1467 -76.3142 87° East 292 336 16,700 2,160 Climbing Washington Center
10:39AM 39.1558 -76.1778 85° East 331 381 19,000 2,160 Climbing Washington Center
10:40AM 39.1731 -76.0467 80° East 381 438 21,100 2,280 Climbing Washington Center
10:41AM 39.1944 -75.8969 80° East 404 465 23,600 2,340 Climbing Washington Center
10:42AM 39.2675 -75.7819 51° Northeast 399 459 25,800 2,100 Climbing Washington Center
10:43AM 39.3531 -75.6747 44° Northeast 404 465 27,900 2,040 Climbing Washington Center
10:44AM 39.4386 -75.5619 45° Northeast 421 484 30,000 1,980 Climbing Washington Center
10:45AM 39.5258 -75.4489 45° Northeast 431 496 32,000 1,500 Climbing Washington Center
10:46AM 39.6133 -75.3356 45° Northeast 431 496 33,000 480 Climbing Washington Center
10:47AM 39.6964 -75.2219 46° Northeast 431 496 33,000  Level Washington Center
10:48AM 39.7731 -75.1114 48° Northeast 437 503 33,000  Level New York Center
10:49AM 39.8456 -75.0078 48° Northeast 443 510 33,000  Level New York Center
10:50AM 39.9292 -74.8856 48° Northeast 448 516 33,000  Level New York Center
10:51AM 40.0211 -74.7581 47° Northeast 450 518 33,000  Level New York Center
10:52AM 40.0875 -74.6397 54° Northeast 445 512 33,000  Level New York Center
10:53AM 40.1533 -74.4750 62° Northeast 450 518 33,000  Level New York Center
10:54AM 40.2058 -74.3258 65° Northeast 455 524 33,000  Level New York Center
10:56AM 40.3050 -74.0508 65° Northeast 497 572 33,000 -420 Level Boston Center
10:57AM 40.3611 -73.9053 63° Northeast 469 540 32,000 -1,920 Descending Boston Center
10:58AM 40.4131 -73.7564 65° Northeast 454 522 29,200 -2,520 Descending Boston Center
10:59AM 40.4647 -73.6047 66° East 448 516 27,000 -1,140 Descending Boston Center
11:00AM 40.5139 -73.4664 65° Northeast 432 497 27,000  Level Boston Center
11:01AM 40.5650 -73.3253 64° Northeast 427 491 27,000 -120 Level Boston Center
11:02AM 40.6142 -73.1864 65° Northeast 421 484 26,800 -600 Descending Boston Center
11:03AM 40.6650 -73.0475 64° Northeast 421 484 25,800 -1,020 Descending Boston Center
11:04AM 40.7114 -72.9111 66° East 416 479 24,800 -960 Descending Boston Center
11:05AM 40.7556 -72.7908 64° Northeast 411 473 23,900 -960 Descending Boston Center
11:06AM 40.7997 -72.6622 66° East 397 457 22,900 -1,440 Descending Boston Center
11:07AM 40.8436 -72.5333 66° East 387 445 21,100 -1,860 Descending Boston Center
11:08AM 40.8875 -72.4100 65° Northeast 371 427 19,200 -1,980 Descending Boston Center
11:08AM 40.9186 -72.3219 65° Northeast 370 426 17,800 -1,620 Descending Boston Center
11:09AM 40.9289 -72.2861 69° East 371 427 17,600 -2,400 Descending Boston Center
11:09AM 40.9497 -72.2231 66° East 373 429 16,100 -2,340 Descending Boston Center
11:10AM 40.9706 -72.1625 65° Northeast 366 421 15,300 -2,040 Descending Boston Center
11:10AM 40.9953 -72.0964 64° Northeast 356 410 13,900 -2,040 Descending Boston Center
11:11AM 41.0075 -72.0467 72° East 350 403 13,300 -1,920 Descending Boston Center
11:11AM 41.0322 -71.9806 64° Northeast 344 396 12,000 -2,040 Descending Boston Center
11:12AM 41.0467 -71.9336 68° East 344 396 11,300 -900 Descending Boston Center
11:12AM 41.0819 -71.8756 51° Northeast 325 374 11,100 -240 Descending Boston Center
11:13AM 41.1025 -71.8450 48° Northeast 323 372 11,100 -600 Level Boston Center
11:13AM 41.1397 -71.7842 51° Northeast 314 361 10,500 -1,140 Descending Boston Center
11:14AM 41.1872 -71.7092 50° Northeast 296 341 9,400 -1,440 Descending Boston Center
11:15AM 41.2344 -71.6286 52° Northeast 283 326 7,800 -1,200 Descending Boston Center
11:16AM 41.2861 -71.5478 50° Northeast 279 321 7,000 -360 Descending Boston Center
11:17AM 41.3375 -71.4642 51° Northeast 277 319 7,100  Climbing Boston Center
11:18AM 41.3972 -71.3969 40° Northeast 277 319 7,100 -60 Level Boston Center
11:19AM 41.4744 -71.3928 North 270 311 7,000 -720 Descending Boston Center
11:20AM 41.5472 -71.3944 359° North 251 289 5,700 -960 Descending Boston Center
11:21AM 41.6117 -71.3711 15° North 244 281 5,100 -360 Descending Boston Center
11:22AM 41.6675 -71.3314 28° Northeast 229 264 5,000 -300 Descending Boston Center
11:23AM 41.7192 -71.2886 32° Northeast 221 254 4,600 -840 Descending Boston Center
11:24AM 41.7772 -71.2597 20° North 214 246 3,400 -1,200 Descending Boston Center